Time;durP1;ratioP1;P1;durP2;ratioP2;P2;SDS_P1;SDS_P2;PMS_P1;PMS_P2;Temp;Humidity;BMP_temperature;BMP_pressure;BME280_temperature;BME280_humidity;BME280_pressure;Samples;Min_cycle;Max_cycle;Signal;HPM_P1;HPM_P2
2023/03/19 00:02:12;;;;;;;;;;;;;;;14.87;48.41;96863.97;5128183;27;19916;-74
2023/03/19 00:04:38;;;;;;;;;;;;;;;14.91;48.49;96867.63;5105904;27;19923;-74
2023/03/19 00:07:03;;;;;;;;;;;;;;;14.96;48.26;96864.94;5126764;27;19915;-74
2023/03/19 00:09:28;;;;;;;;;;;;;;;14.98;47.98;96860.19;5107811;27;19915;-74
2023/03/19 00:11:53;;;;;;;;;;;;;;;15.00;47.94;96865.16;5094784;27;19916;-74
2023/03/19 00:14:19;;;;;;;;;;;;;;;15.02;47.96;96869.06;5122200;27;19918;-74
2023/03/19 00:16:45;;;;;;;;;;;;;;;15.06;47.89;96874.50;5095809;27;19920;-74
2023/03/19 00:19:10;;;;;;;;;;;;;;;14.96;48.40;96864.94;5104626;27;20405;-73
2023/03/19 00:21:35;;;;;;;;;;;;;;;14.91;48.69;96865.78;5106350;27;19919;-74
2023/03/19 00:24:01;;;;;;;;;;;;;;;14.92;48.59;96864.69;5108143;27;19928;-75
2023/03/19 00:26:33;;;;;;;;;;;;;;;14.90;48.83;96868.66;5085965;27;19938;-74
2023/03/19 00:28:58;;;;;;;;;;;;;;;14.85;49.09;96871.34;5110995;27;19919;-75
2023/03/19 00:31:24;;;;;;;;;;;;;;;14.91;48.48;96878.09;5127481;27;20248;-75
2023/03/19 00:33:49;;;;;;;;;;;;;;;14.98;48.35;96873.31;5093016;28;19926;-74
2023/03/19 00:36:15;;;;;;;;;;;;;;;15.08;48.34;96872.38;5057845;27;20410;-75
2023/03/19 00:38:41;;;;;;;;;;;;;;;15.13;48.10;96875.75;5083720;27;19923;-75
2023/03/19 00:41:06;;;;;;;;;;;;;;;15.22;48.04;96877.75;5105210;28;19997;-73
2023/03/19 00:43:31;;;;;;;;;;;;;;;15.20;48.32;96874.59;5120308;27;20010;-73
2023/03/19 00:45:57;;;;;;;;;;;;;;;15.21;48.27;96878.81;5107878;28;19963;-74
2023/03/19 00:48:22;;;;;;;;;;;;;;;15.15;48.31;96875.47;5108041;27;19957;-75
2023/03/19 00:50:47;;;;;;;;;;;;;;;15.16;48.23;96888.31;5091542;27;20303;-74
2023/03/19 00:53:13;;;;;;;;;;;;;;;15.22;48.16;96883.00;5109128;27;19961;-74
2023/03/19 00:55:38;;;;;;;;;;;;;;;15.28;47.94;96882.63;5118824;27;19919;-74
2023/03/19 00:58:05;;;;;;;;;;;;;;;15.27;47.99;96891.56;5105179;27;19927;-75
2023/03/19 01:00:31;;;;;;;;;;;;;;;15.33;47.90;96892.28;5102565;27;19919;-74
2023/03/19 01:02:57;;;;;;;;;;;;;;;15.33;47.78;96887.03;5123317;27;19923;-76
2023/03/19 01:05:22;;;;;;;;;;;;;;;15.34;47.66;96888.59;5110340;27;19980;-75
2023/03/19 01:07:47;;;;;;;;;;;;;;;15.38;47.70;96886.97;5120245;27;19973;-74
2023/03/19 01:10:13;;;;;;;;;;;;;;;15.35;47.64;96893.56;5105270;27;19923;-75
2023/03/19 01:12:38;;;;;;;;;;;;;;;15.35;47.81;96885.72;5125596;27;19930;-74
2023/03/19 01:15:04;;;;;;;;;;;;;;;15.42;47.80;96887.19;5120117;27;19919;-75
2023/03/19 01:17:29;;;;;;;;;;;;;;;15.40;47.75;96887.47;5074188;28;20568;-73
2023/03/19 01:19:55;;;;;;;;;;;;;;;15.45;47.66;96892.66;5116539;27;19919;-74
2023/03/19 01:22:20;;;;;;;;;;;;;;;15.46;47.53;96880.31;5125669;27;20620;-74
2023/03/19 01:24:46;;;;;;;;;;;;;;;15.48;47.62;96886.84;5110106;27;20266;-74
2023/03/19 01:27:11;;;;;;;;;;;;;;;15.47;47.46;96890.53;5088637;27;20278;-73
2023/03/19 01:29:36;;;;;;;;;;;;;;;15.37;47.41;96885.44;5093107;27;20697;-74
2023/03/19 01:32:02;;;;;;;;;;;;;;;15.45;47.05;96891.88;5123848;27;19930;-75
2023/03/19 01:34:27;;;;;;;;;;;;;;;15.49;47.13;96885.00;5123053;27;20018;-75
2023/03/19 01:36:52;;;;;;;;;;;;;;;15.58;47.02;96882.53;5091637;28;20282;-74
2023/03/19 01:39:18;;;;;;;;;;;;;;;15.49;47.28;96888.41;5100528;28;19932;-74
2023/03/19 01:41:43;;;;;;;;;;;;;;;15.60;46.82;96883.81;5100654;27;20000;-73
2023/03/19 01:44:24;;;;;;;;;;;;;;;15.64;47.04;96891.88;5105235;28;19922;-74
2023/03/19 01:46:50;;;;;;;;;;;;;;;15.59;47.12;96892.72;5123844;27;19930;-73
2023/03/19 01:49:15;;;;;;;;;;;;;;;15.53;47.32;96889.41;5092217;27;19923;-73
2023/03/19 01:51:40;;;;;;;;;;;;;;;15.47;47.41;96889.75;5109977;27;19930;-75
2023/03/19 01:54:06;;;;;;;;;;;;;;;15.42;47.63;96888.00;5115952;27;19945;-74
2023/03/19 01:56:33;;;;;;;;;;;;;;;15.41;47.54;96893.50;5082258;28;19924;-73
2023/03/19 01:59:00;;;;;;;;;;;;;;;15.35;47.77;96892.78;5121807;27;20386;-75
2023/03/19 02:01:25;;;;;;;;;;;;;;;15.31;47.90;96891.78;5103183;27;19919;-74
2023/03/19 02:03:51;;;;;;;;;;;;;;;15.26;48.33;96890.00;5104540;22;19984;-77
2023/03/19 02:06:17;;;;;;;;;;;;;;;15.29;48.16;96894.69;4995592;28;20173;-77
2023/03/19 02:08:42;;;;;;;;;;;;;;;15.23;48.13;96879.28;5005432;28;19945;-78
2023/03/19 02:11:08;;;;;;;;;;;;;;;15.09;48.15;96882.59;5005586;28;20295;-77
2023/03/19 02:13:34;;;;;;;;;;;;;;;15.04;48.09;96880.03;5009867;28;20343;-77
2023/03/19 02:16:00;;;;;;;;;;;;;;;14.98;48.53;96886.41;5004220;28;20008;-78
2023/03/19 02:18:26;;;;;;;;;;;;;;;14.94;48.43;96888.00;4990708;28;20353;-78
2023/03/19 02:20:51;;;;;;;;;;;;;;;14.86;49.18;96886.81;4998585;28;19943;-78
2023/03/19 02:23:20;;;;;;;;;;;;;;;14.76;48.94;96887.69;5002895;28;20369;-77
2023/03/19 02:25:45;;;;;;;;;;;;;;;14.72;48.82;96891.13;5001220;28;19971;-76
2023/03/19 02:28:10;;;;;;;;;;;;;;;14.63;48.95;96893.56;4991859;28;19956;-77
2023/03/19 02:30:36;;;;;;;;;;;;;;;14.60;48.63;96899.38;4996911;28;20001;-78
2023/03/19 02:33:02;;;;;;;;;;;;;;;14.66;48.70;96898.25;5021179;28;20407;-77
2023/03/19 02:35:27;;;;;;;;;;;;;;;14.63;48.90;96895.41;4989562;28;19961;-77
2023/03/19 02:37:52;;;;;;;;;;;;;;;14.71;48.99;96900.84;4989067;28;19953;-77
2023/03/19 02:40:38;;;;;;;;;;;;;;;14.59;48.82;96901.19;4984744;28;19929;-77
2023/03/19 02:43:03;;;;;;;;;;;;;;;14.62;48.96;96907.75;5020660;28;19918;-78
2023/03/19 02:45:29;;;;;;;;;;;;;;;14.51;49.28;96903.63;4987649;28;20004;-77
2023/03/19 02:47:54;;;;;;;;;;;;;;;14.43;49.39;96905.78;4991256;28;19968;-77
2023/03/19 02:50:20;;;;;;;;;;;;;;;14.43;49.08;96911.03;4990055;28;19924;-77
2023/03/19 02:52:45;;;;;;;;;;;;;;;14.33;49.59;96902.47;5007358;28;20391;-78
2023/03/19 02:55:11;;;;;;;;;;;;;;;14.24;49.81;96899.66;4966775;28;20400;-77
2023/03/19 02:57:36;;;;;;;;;;;;;;;14.19;50.03;96904.94;4988181;28;19952;-77
2023/03/19 03:00:03;;;;;;;;;;;;;;;14.09;50.13;96905.03;4996043;28;19917;-78
2023/03/19 03:02:28;;;;;;;;;;;;;;;14.06;50.29;96908.94;4976256;28;19965;-77
2023/03/19 03:04:53;;;;;;;;;;;;;;;14.03;50.43;96907.69;4983878;28;19918;-77
2023/03/19 03:07:18;;;;;;;;;;;;;;;14.00;50.15;96899.56;5001809;28;19926;-77
2023/03/19 03:09:44;;;;;;;;;;;;;;;13.92;50.67;96900.16;4969115;28;19918;-78
2023/03/19 03:12:09;;;;;;;;;;;;;;;13.94;50.34;96892.81;4984699;28;20049;-77
2023/03/19 03:14:34;;;;;;;;;;;;;;;13.90;50.32;96887.34;4968825;28;20547;-77
2023/03/19 03:17:00;;;;;;;;;;;;;;;13.78;50.46;96885.06;4979404;28;20388;-77
2023/03/19 03:19:25;;;;;;;;;;;;;;;13.73;50.27;96890.34;4986438;28;19919;-77
2023/03/19 03:21:51;;;;;;;;;;;;;;;13.70;50.66;96892.72;4977359;28;19921;-77
2023/03/19 03:24:16;;;;;;;;;;;;;;;13.58;50.98;96904.28;4986635;28;19929;-77
2023/03/19 03:26:43;;;;;;;;;;;;;;;13.60;50.59;96901.38;4989680;28;19965;-77
2023/03/19 03:29:08;;;;;;;;;;;;;;;13.52;51.17;96901.94;5008173;28;19917;-76
2023/03/19 03:31:33;;;;;;;;;;;;;;;13.45;51.29;96907.47;5002154;28;19983;-77
2023/03/19 03:33:59;;;;;;;;;;;;;;;13.52;51.29;96905.38;4979211;28;20403;-77
2023/03/19 03:36:24;;;;;;;;;;;;;;;13.60;50.93;96907.41;5001760;28;19928;-77
2023/03/19 03:38:49;;;;;;;;;;;;;;;13.60;50.78;96909.25;4986277;28;20388;-77
2023/03/19 03:41:15;;;;;;;;;;;;;;;13.52;50.62;96913.22;4978045;28;20036;-76
2023/03/19 03:43:40;;;;;;;;;;;;;;;13.49;50.99;96914.53;4984956;28;19925;-77
2023/03/19 03:46:07;;;;;;;;;;;;;;;13.58;50.87;96919.97;4986950;28;19918;-77
2023/03/19 03:48:32;;;;;;;;;;;;;;;13.59;50.63;96924.16;4984314;28;20262;-77
2023/03/19 03:50:58;;;;;;;;;;;;;;;13.52;50.94;96913.22;4990917;28;20300;-77
2023/03/19 03:53:23;;;;;;;;;;;;;;;13.53;50.80;96920.00;4984054;28;19964;-76
2023/03/19 03:55:48;;;;;;;;;;;;;;;13.51;50.76;96919.50;4983249;28;20418;-77
2023/03/19 03:58:13;;;;;;;;;;;;;;;13.47;50.64;96921.88;4986593;28;19917;-77
2023/03/19 04:00:39;;;;;;;;;;;;;;;13.48;50.94;96923.41;4972695;28;19929;-77
2023/03/19 04:03:04;;;;;;;;;;;;;;;13.38;50.76;96925.28;4969807;28;19926;-77
2023/03/19 04:05:30;;;;;;;;;;;;;;;13.40;50.72;96920.56;4976764;28;20419;-77
2023/03/19 04:07:55;;;;;;;;;;;;;;;13.36;50.72;96922.94;4986355;28;20009;-77
2023/03/19 04:10:21;;;;;;;;;;;;;;;13.39;51.21;96921.63;4986092;28;19918;-77
2023/03/19 04:12:46;;;;;;;;;;;;;;;13.46;50.89;96922.13;4994686;28;20348;-77
2023/03/19 04:15:12;;;;;;;;;;;;;;;13.53;50.60;96929.69;4983888;28;20040;-77
2023/03/19 04:17:39;;;;;;;;;;;;;;;13.51;50.68;96931.78;4992399;28;19917;-78
2023/03/19 04:20:05;;;;;;;;;;;;;;;13.54;50.74;96928.63;4992401;28;19921;-77
2023/03/19 04:22:30;;;;;;;;;;;;;;;13.45;50.89;96934.44;4966825;28;19925;-77
2023/03/19 04:24:55;;;;;;;;;;;;;;;13.43;50.71;96936.50;4974055;28;20343;-77
2023/03/19 04:27:21;;;;;;;;;;;;;;;13.47;50.84;96931.56;4985667;28;19992;-77
2023/03/19 04:29:46;;;;;;;;;;;;;;;13.59;50.76;96934.63;4958202;28;19968;-77
2023/03/19 04:32:11;;;;;;;;;;;;;;;13.60;50.61;96930.16;5002949;28;20384;-77
2023/03/19 04:34:37;;;;;;;;;;;;;;;13.67;50.58;96939.31;4986885;28;19932;-77
2023/03/19 04:37:05;;;;;;;;;;;;;;;13.72;50.27;96935.06;5000254;28;20612;-77
2023/03/19 04:39:30;;;;;;;;;;;;;;;13.83;49.96;96933.97;4973208;28;20004;-77
2023/03/19 04:41:56;;;;;;;;;;;;;;;13.84;49.72;96932.91;4970712;28;20392;-77
2023/03/19 04:44:21;;;;;;;;;;;;;;;13.86;50.07;96933.41;4995424;28;19918;-77
2023/03/19 04:46:46;;;;;;;;;;;;;;;13.72;50.30;96932.47;4989700;28;19917;-77
2023/03/19 04:49:12;;;;;;;;;;;;;;;13.71;50.56;96931.69;4972764;28;19918;-77
2023/03/19 04:51:37;;;;;;;;;;;;;;;13.72;50.56;96932.47;4990775;28;19918;-77
2023/03/19 04:54:04;;;;;;;;;;;;;;;13.76;50.14;96936.91;4988287;28;19922;-77
2023/03/19 04:56:29;;;;;;;;;;;;;;;13.72;50.31;96942.94;4973198;28;19933;-77
2023/03/19 04:58:54;;;;;;;;;;;;;;;13.78;50.03;96937.41;4987303;28;19922;-77
2023/03/19 05:01:20;;;;;;;;;;;;;;;13.76;50.07;96941.31;5001833;28;19925;-77
2023/03/19 05:03:45;;;;;;;;;;;;;;;13.69;50.33;96944.22;4970336;28;20377;-77
2023/03/19 05:06:10;;;;;;;;;;;;;;;13.71;50.11;96944.78;5004467;28;19918;-76
2023/03/19 05:08:36;;;;;;;;;;;;;;;13.79;49.71;96938.19;4989893;28;19928;-77
2023/03/19 05:11:01;;;;;;;;;;;;;;;13.80;49.81;96937.13;4989012;28;20001;-77
2023/03/19 05:13:26;;;;;;;;;;;;;;;13.78;49.44;96940.03;4988363;28;19918;-78
2023/03/19 05:15:52;;;;;;;;;;;;;;;13.76;49.44;96938.72;4969469;28;19977;-77
2023/03/19 05:18:17;;;;;;;;;;;;;;;13.76;50.11;96941.31;5003297;28;19929;-77
2023/03/19 05:20:43;;;;;;;;;;;;;;;13.78;49.61;96947.88;5003538;28;19918;-77
2023/03/19 05:23:08;;;;;;;;;;;;;;;13.75;50.46;96937.16;4986407;28;19922;-77
2023/03/19 05:25:36;;;;;;;;;;;;;;;13.71;50.25;96944.78;5003630;28;19989;-77
2023/03/19 05:28:02;;;;;;;;;;;;;;;13.83;50.14;96950.47;4970234;28;20369;-77
2023/03/19 05:30:28;;;;;;;;;;;;;;;13.74;49.72;96948.66;4963420;28;19942;-77
2023/03/19 05:32:54;;;;;;;;;;;;;;;13.70;50.22;96947.66;4985781;28;20531;-77
2023/03/19 05:35:19;;;;;;;;;;;;;;;13.60;50.51;96945.88;4984258;28;19922;-77
2023/03/19 05:37:45;;;;;;;;;;;;;;;13.59;50.30;96950.31;4987442;28;19988;-77
2023/03/19 05:40:11;;;;;;;;;;;;;;;13.55;50.48;96946.66;4981162;28;20008;-77
2023/03/19 05:42:36;;;;;;;;;;;;;;;13.46;50.72;96943.06;4987397;28;19918;-77
2023/03/19 05:45:03;;;;;;;;;;;;;;;13.43;51.08;96946.97;5002420;28;19969;-77
2023/03/19 05:47:28;;;;;;;;;;;;;;;13.43;50.98;96943.59;4990279;28;20361;-77
2023/03/19 05:49:53;;;;;;;;;;;;;;;13.50;50.65;96951.91;4992937;28;19926;-77
2023/03/19 05:52:19;;;;;;;;;;;;;;;13.51;50.77;96953.50;4992529;28;19953;-77
2023/03/19 05:54:48;;;;;;;;;;;;;;;13.56;50.78;96948.25;4970161;28;20012;-77
2023/03/19 05:57:13;;;;;;;;;;;;;;;13.58;50.58;96959.22;4979592;28;19930;-77
2023/03/19 05:59:38;;;;;;;;;;;;;;;13.55;50.74;96959.75;4986383;28;20377;-77
2023/03/19 06:02:03;;;;;;;;;;;;;;;13.57;50.63;96949.81;4985061;28;19921;-77
2023/03/19 06:04:29;;;;;;;;;;;;;;;13.61;50.68;96966.53;4983285;28;20397;-77
2023/03/19 06:06:54;;;;;;;;;;;;;;;13.61;50.81;96958.69;5000701;28;19921;-77
2023/03/19 06:09:19;;;;;;;;;;;;;;;13.61;50.67;96968.38;5002309;28;20020;-76
2023/03/19 06:11:45;;;;;;;;;;;;;;;13.61;50.88;96966.53;4988896;28;19933;-77
2023/03/19 06:14:10;;;;;;;;;;;;;;;13.60;50.99;96964.19;4992713;28;20421;-77
2023/03/19 06:16:36;;;;;;;;;;;;;;;13.59;51.03;96967.81;4992739;28;19922;-78
2023/03/19 06:19:01;;;;;;;;;;;;;;;13.60;50.52;96975.41;4984610;28;19925;-77
2023/03/19 06:21:28;;;;;;;;;;;;;;;13.65;50.41;96975.38;4987891;28;19917;-77
2023/03/19 06:23:54;;;;;;;;;;;;;;;13.66;50.64;96981.44;4971648;28;19917;-80
2023/03/19 06:26:19;;;;;;;;;;;;;;;13.68;50.40;96980.09;4980103;28;19921;-81
2023/03/19 06:28:45;;;;;;;;;;;;;;;13.70;50.73;96982.44;4976131;28;19998;-80
2023/03/19 06:31:10;;;;;;;;;;;;;;;13.75;50.29;96986.88;4975698;28;19921;-77
2023/03/19 06:33:36;;;;;;;;;;;;;;;13.79;50.56;96985.28;4996602;28;20330;-77
2023/03/19 06:36:01;;;;;;;;;;;;;;;13.77;50.78;96990.00;4989351;28;19922;-77
2023/03/19 06:38:26;;;;;;;;;;;;;;;13.79;50.33;96995.75;4986415;28;19925;-77
2023/03/19 06:40:51;;;;;;;;;;;;;;;13.84;50.18;96999.09;4984499;28;19922;-77
2023/03/19 06:43:17;;;;;;;;;;;;;;;13.92;50.17;96995.16;4998108;28;19921;-78
2023/03/19 06:45:42;;;;;;;;;;;;;;;13.98;50.13;97006.38;4985225;28;20282;-77
2023/03/19 06:48:07;;;;;;;;;;;;;;;13.99;50.45;97000.09;4984153;28;19918;-79
2023/03/19 06:50:32;;;;;;;;;;;;;;;14.09;50.34;96999.28;4987054;28;20392;-80
2023/03/19 06:52:58;;;;;;;;;;;;;;;14.13;49.65;96995.03;4970741;28;19960;-80
2023/03/19 06:55:23;;;;;;;;;;;;;;;14.26;49.96;96993.66;4986580;28;19925;-80
2023/03/19 06:57:49;;;;;;;;;;;;;;;14.29;49.58;96993.91;4994019;28;19981;-81
2023/03/19 07:00:15;;;;;;;;;;;;;;;14.34;49.52;96991.25;4984921;28;19918;-82
2023/03/19 07:02:40;;;;;;;;;;;;;;;14.39;49.17;96987.78;4991533;28;19974;-80
2023/03/19 07:05:06;;;;;;;;;;;;;;;14.41;49.22;96999.56;5002142;28;19921;-82
2023/03/19 07:07:31;;;;;;;;;;;;;;;14.42;49.74;97003.75;4971875;28;20385;-82
2023/03/19 07:09:56;;;;;;;;;;;;;;;14.50;49.15;97002.41;4968123;28;19917;-82
2023/03/19 07:12:22;;;;;;;;;;;;;;;14.61;49.16;97008.38;4994139;28;19924;-81
2023/03/19 07:14:47;;;;;;;;;;;;;;;14.65;48.98;97006.78;4998343;28;19972;-82
2023/03/19 07:17:12;;;;;;;;;;;;;;;14.67;49.51;97015.13;4987860;28;20432;-82
2023/03/19 07:19:37;;;;;;;;;;;;;;;14.73;49.17;97014.03;4972096;28;19977;-82
2023/03/19 07:22:03;;;;;;;;;;;;;;;14.82;49.02;97013.44;4973317;28;19922;-82
2023/03/19 07:24:28;;;;;;;;;;;;;;;14.87;49.05;97010.78;4952250;28;19976;-82
2023/03/19 07:26:53;;;;;;;;;;;;;;;14.91;48.36;97014.44;4995349;28;19941;-82
2023/03/19 07:29:19;;;;;;;;;;;;;;;14.87;49.21;97016.00;4986951;28;19918;-80
2023/03/19 07:31:44;;;;;;;;;;;;;;;14.97;48.09;97013.31;4984554;28;19918;-81
2023/03/19 07:34:10;;;;;;;;;;;;;;;15.00;48.30;97017.22;4979306;28;20017;-81
2023/03/19 07:36:35;;;;;;;;;;;;;;;15.01;49.02;97019.56;4962921;28;20390;-82
2023/03/19 07:39:00;;;;;;;;;;;;;;;15.12;48.88;97017.63;4984550;28;19925;-80
2023/03/19 07:41:26;;;;;;;;;;;;;;;15.11;47.84;97016.84;4972658;28;20012;-82
2023/03/19 07:43:51;;;;;;;;;;;;;;;15.24;47.44;97017.25;4989505;28;20388;-82
2023/03/19 07:46:16;;;;;;;;;;;;;;;15.38;47.55;97012.91;4982468;28;20369;-82
2023/03/19 07:48:42;;;;;;;;;;;;;;;15.40;47.06;97010.78;5012078;28;19918;-81
2023/03/19 07:51:07;;;;;;;;;;;;;;;15.61;46.70;97015.78;4978948;28;19965;-81
2023/03/19 07:53:32;;;;;;;;;;;;;;;15.76;45.16;97007.75;4976233;28;19925;-82
2023/03/19 07:55:58;;;;;;;;;;;;;;;15.90;45.40;97008.66;4985499;28;19922;-82
2023/03/19 07:58:23;;;;;;;;;;;;;;;16.08;44.77;97011.56;4991273;28;19918;-81
2023/03/19 08:01:15;;;;;;;;;;;;;;;16.11;45.30;97008.38;4974824;28;19989;-82
2023/03/19 08:03:40;;;;;;;;;;;;;;;16.19;45.04;97012.97;4990080;28;20004;-82
2023/03/19 08:06:05;;;;;;;;;;;;;;;16.12;44.43;97007.28;4992759;28;20016;-80
2023/03/19 08:08:33;;;;;;;;;;;;;;;16.29;43.43;97017.31;5006379;28;19918;-81
2023/03/19 08:10:59;;;;;;;;;;;;;;;16.35;43.55;97023.25;4973584;28;20285;-81
2023/03/19 08:13:24;;;;;;;;;;;;;;;16.33;44.01;97022.78;4975612;28;19913;-81
2023/03/19 08:15:50;;;;;;;;;;;;;;;16.32;42.74;97022.00;4981069;28;19926;-81
2023/03/19 08:18:15;;;;;;;;;;;;;;;16.38;43.50;97027.94;4992144;28;19954;-80
2023/03/19 08:20:40;;;;;;;;;;;;;;;16.46;43.16;97024.69;4994015;28;19976;-81
2023/03/19 08:23:06;;;;;;;;;;;;;;;16.54;43.21;97015.38;4986928;28;19924;-83
2023/03/19 08:25:31;;;;;;;;;;;;;;;16.71;42.70;97014.84;4959264;28;20373;-82
2023/03/19 08:27:57;;;;;;;;;;;;;;;16.78;42.99;97012.63;4975145;28;19917;-82
2023/03/19 08:30:22;;;;;;;;;;;;;;;16.88;43.17;97014.31;4991043;28;19914;-81
2023/03/19 08:32:49;;;;;;;;;;;;;;;16.92;42.75;97016.09;4948269;28;19922;-81
2023/03/19 08:35:15;;;;;;;;;;;;;;;17.34;41.06;97014.31;4947231;28;19913;-81
2023/03/19 08:37:40;;;;;;;;;;;;;;;17.40;41.57;97023.66;4990307;28;20385;-79
2023/03/19 08:40:06;;;;;;;;;;;;;;;17.30;41.08;97013.31;4986970;28;20035;-83
2023/03/19 08:42:31;;;;;;;;;;;;;;;17.55;40.20;97021.81;4966733;28;19918;-82
2023/03/19 08:44:56;;;;;;;;;;;;;;;17.66;40.83;97020.53;5007345;28;19918;-82
2023/03/19 08:47:23;;;;;;;;;;;;;;;17.08;41.21;97018.47;4989521;28;20297;-79
2023/03/19 08:49:49;;;;;;;;;;;;;;;17.16;42.21;97020.44;4968445;28;19975;-80
2023/03/19 08:52:14;;;;;;;;;;;;;;;17.39;41.85;97024.75;4992146;28;20087;-79
2023/03/19 08:54:39;;;;;;;;;;;;;;;17.60;40.62;97030.41;4971812;28;19918;-81
2023/03/19 08:57:05;;;;;;;;;;;;;;;17.65;40.93;97034.78;5005152;28;19922;-80
2023/03/19 08:59:30;;;;;;;;;;;;;;;17.68;40.44;97031.56;4977154;28;19918;-81
2023/03/19 09:01:55;;;;;;;;;;;;;;;17.60;40.43;97034.91;4974027;28;19924;-79
2023/03/19 09:04:21;;;;;;;;;;;;;;;17.76;40.35;97033.50;5005483;28;20260;-82
2023/03/19 09:06:49;;;;;;;;;;;;;;;17.90;40.58;97030.88;4987028;28;19922;-82
2023/03/19 09:09:15;;;;;;;;;;;;;;;17.97;39.89;97033.13;4987801;28;19928;-81
2023/03/19 09:11:40;;;;;;;;;;;;;;;18.17;39.14;97036.41;4974381;28;19922;-81
2023/03/19 09:14:06;;;;;;;;;;;;;;;18.07;41.21;97032.91;4979070;28;19932;-81
2023/03/19 09:16:31;;;;;;;;;;;;;;;17.93;40.77;97035.56;4972598;28;19944;-79
2023/03/19 09:18:57;;;;;;;;;;;;;;;18.21;39.65;97035.50;4989686;28;19921;-79
2023/03/19 09:21:22;;;;;;;;;;;;;;;18.24;39.37;97040.19;4972116;28;19929;-81
2023/03/19 09:23:47;;;;;;;;;;;;;;;18.52;38.75;97043.53;4959592;28;19921;-83
2023/03/19 09:26:12;;;;;;;;;;;;;;;18.66;39.08;97037.41;4959064;28;20357;-81
2023/03/19 09:28:38;;;;;;;;;;;;;;;18.72;38.44;97042.25;4989301;28;19921;-80
2023/03/19 09:31:06;;;;;;;;;;;;;;;18.77;38.51;97045.88;4957993;28;19925;-78
2023/03/19 09:33:31;;;;;;;;;;;;;;;18.99;38.70;97037.97;4990496;28;19918;-80
2023/03/19 09:35:56;;;;;;;;;;;;;;;19.15;39.04;97038.34;4983744;28;20377;-81
2023/03/19 09:38:21;;;;;;;;;;;;;;;19.06;38.13;97040.16;5005217;28;19917;-79
2023/03/19 09:40:48;;;;;;;;;;;;;;;19.37;37.76;97047.31;4992604;28;19980;-83
2023/03/19 09:43:13;;;;;;;;;;;;;;;19.03;38.88;97048.69;5005256;28;19924;-83
2023/03/19 09:45:38;;;;;;;;;;;;;;;19.24;38.19;97048.94;4972141;28;19922;-82
2023/03/19 09:48:05;;;;;;;;;;;;;;;19.31;38.35;97059.06;4966010;28;19969;-82
2023/03/19 09:50:33;;;;;;;;;;;;;;;19.32;38.47;97055.34;4982376;28;19993;-80
2023/03/19 09:52:58;;;;;;;;;;;;;;;19.14;38.67;97057.13;4991311;28;19925;-81
2023/03/19 09:55:24;;;;;;;;;;;;;;;19.01;38.79;97058.78;4990002;28;19917;-80
2023/03/19 09:57:54;;;;;;;;;;;;;;;18.82;40.02;97065.00;5005873;28;20372;-82
2023/03/19 10:00:33;;;;;;;;;;;;;;;18.95;39.43;97065.25;4988389;28;20364;-79
2023/03/19 10:03:16;;;;;;;;;;;;;;;18.98;39.97;97051.44;4984225;28;19922;-81
2023/03/19 10:05:54;;;;;;;;;;;;;;;18.84;40.34;97054.94;4989168;28;19918;-83
2023/03/19 10:08:35;;;;;;;;;;;;;;;18.84;39.79;97047.03;5005445;28;19917;-82
2023/03/19 10:11:33;;;;;;;;;;;;;;;18.96;40.26;97046.47;5000117;28;19926;-82
2023/03/19 10:14:04;;;;;;;;;;;;;;;18.97;40.32;97052.53;4956784;28;20501;-80
2023/03/19 10:16:30;;;;;;;;;;;;;;;18.95;40.91;97049.41;5004729;28;19925;-81
2023/03/19 10:18:59;;;;;;;;;;;;;;;18.91;41.05;97051.88;4989481;28;19924;-82
2023/03/19 10:21:33;;;;;;;;;;;;;;;18.77;41.51;97057.19;4988557;28;19917;-82
2023/03/19 10:24:15;;;;;;;;;;;;;;;18.67;41.56;97054.78;4972898;28;19914;-81
2023/03/19 10:26:40;;;;;;;;;;;;;;;18.47;41.31;97058.66;5006073;28;19994;-82
2023/03/19 10:29:10;;;;;;;;;;;;;;;18.39;42.13;97065.44;4988813;28;20325;-81
2023/03/19 10:31:45;;;;;;;;;;;;;;;18.26;42.57;97063.63;4995388;28;19925;-80
2023/03/19 10:34:13;;;;;;;;;;;;;;;18.18;42.99;97074.84;4985337;28;19922;-79
2023/03/19 10:36:38;;;;;;;;;;;;;;;18.02;43.47;97072.53;4977877;28;19926;-81
2023/03/19 10:39:06;;;;;;;;;;;;;;;18.05;43.42;97066.69;4987932;28;22229;-81
2023/03/19 10:41:41;;;;;;;;;;;;;;;18.14;43.84;97072.03;5002573;28;19957;-81
2023/03/19 10:44:09;;;;;;;;;;;;;;;18.20;44.15;97075.31;4988207;28;19918;-82
2023/03/19 10:46:38;;;;;;;;;;;;;;;18.06;43.88;97073.53;4987200;28;19918;-80
2023/03/19 10:49:03;;;;;;;;;;;;;;;17.71;45.24;97072.34;4971596;28;19985;-80
2023/03/19 10:51:28;;;;;;;;;;;;;;;17.61;45.19;97083.81;4971034;28;20361;-81
2023/03/19 10:53:55;;;;;;;;;;;;;;;17.52;45.28;97082.97;4987985;28;19969;-81
2023/03/19 10:56:25;;;;;;;;;;;;;;;17.56;45.72;97086.56;5004166;28;19930;-81
2023/03/19 10:58:56;;;;;;;;;;;;;;;17.49;45.82;97086.94;4989462;28;19929;-82
2023/03/19 11:01:21;;;;;;;;;;;;;;;17.62;46.02;97088.03;4988261;28;20305;-79
2023/03/19 11:03:47;;;;;;;;;;;;;;;17.44;45.96;97083.63;4954005;28;19922;-80
2023/03/19 11:06:21;;;;;;;;;;;;;;;17.51;46.17;97086.66;4985532;28;20304;-82
2023/03/19 11:08:49;;;;;;;;;;;;;;;17.58;46.33;97092.31;5000989;28;20381;-82
2023/03/19 11:11:24;;;;;;;;;;;;;;;17.59;46.00;97089.38;4990462;28;19949;-79
2023/03/19 11:13:49;;;;;;;;;;;;;;;17.66;45.89;97086.38;4988574;28;20301;-80
2023/03/19 11:16:14;;;;;;;;;;;;;;;17.60;46.26;97090.19;4991817;28;19928;-80
2023/03/19 11:18:40;;;;;;;;;;;;;;;17.53;47.24;97089.75;5004964;28;19968;-81
2023/03/19 11:21:07;;;;;;;;;;;;;;;17.34;47.52;97089.84;4990668;28;19965;-79
2023/03/19 11:23:39;;;;;;;;;;;;;;;17.29;47.90;97093.34;4979036;28;19917;-81
2023/03/19 11:26:05;;;;;;;;;;;;;;;17.32;48.26;97098.03;4991270;28;20398;-82
2023/03/19 11:28:33;;;;;;;;;;;;;;;17.42;48.54;97089.94;4992482;28;19921;-83
2023/03/19 11:31:18;;;;;;;;;;;;;;;17.55;47.73;97095.53;4965548;28;19918;-81
2023/03/19 11:33:56;;;;;;;;;;;;;;;17.58;47.89;97097.56;5002103;28;20461;-81
2023/03/19 11:36:22;;;;;;;;;;;;;;;17.60;48.23;97090.94;4982726;28;19930;-81
2023/03/19 11:38:51;;;;;;;;;;;;;;;17.78;47.75;97091.91;4976759;28;20267;-82
2023/03/19 11:41:17;;;;;;;;;;;;;;;17.88;47.81;97087.56;4969765;28;20299;-83
2023/03/19 11:43:47;;;;;;;;;;;;;;;18.00;47.60;97092.34;4991156;28;20053;-81
2023/03/19 11:46:18;;;;;;;;;;;;;;;18.08;46.89;97092.44;4993072;28;20293;-79
2023/03/19 11:48:44;;;;;;;;;;;;;;;17.95;47.14;97087.97;4991817;28;19929;-82
2023/03/19 11:51:12;;;;;;;;;;;;;;;17.93;47.22;97095.38;4992131;28;19922;-81
2023/03/19 11:53:38;;;;;;;;;;;;;;;17.69;47.33;97085.78;4975843;28;19917;-80
2023/03/19 11:56:22;;;;;;;;;;;;;;;17.54;47.76;97099.22;4989814;28;20012;-81
2023/03/19 11:58:47;;;;;;;;;;;;;;;17.26;48.52;97104.47;5007322;28;20297;-79
2023/03/19 12:01:30;;;;;;;;;;;;;;;17.13;49.31;97099.94;4991124;28;19922;-78
2023/03/19 12:04:15;;;;;;;;;;;;;;;17.02;49.72;97092.22;5000321;28;20278;-81
2023/03/19 12:06:40;;;;;;;;;;;;;;;17.03;49.90;97095.59;4987289;28;20377;-81
2023/03/19 12:09:08;;;;;;;;;;;;;;;16.95;49.98;97091.03;5007437;28;20013;-82
2023/03/19 12:11:40;;;;;;;;;;;;;;;16.98;50.28;97088.59;4992582;28;19917;-81
2023/03/19 12:14:24;;;;;;;;;;;;;;;16.95;50.92;97091.81;4991244;28;19925;-81
2023/03/19 12:17:06;;;;;;;;;;;;;;;17.01;51.25;97088.00;4987912;28;19988;-81
2023/03/19 12:19:31;;;;;;;;;;;;;;;16.86;52.54;97093.50;4991753;28;19918;-80
2023/03/19 12:22:15;;;;;;;;;;;;;;;16.74;53.39;97093.13;4992179;28;20377;-80
2023/03/19 12:24:59;;;;;;;;;;;;;;;16.77;53.28;97093.34;4965262;28;20436;-81
2023/03/19 12:27:33;;;;;;;;;;;;;;;16.65;53.80;97093.00;4989569;28;19926;-81
2023/03/19 12:30:01;;;;;;;;;;;;;;;16.65;54.64;97100.91;4991459;28;20433;-80
2023/03/19 12:32:41;;;;;;;;;;;;;;;16.74;53.91;97098.41;4991698;28;19918;-80
2023/03/19 12:35:16;;;;;;;;;;;;;;;16.62;54.01;97102.25;4972139;28;20430;-81
2023/03/19 12:37:54;;;;;;;;;;;;;;;16.52;54.11;97104.22;4974838;28;19921;-80
2023/03/19 12:40:32;;;;;;;;;;;;;;;16.39;55.22;97111.00;5006979;28;19921;-80
2023/03/19 12:42:57;;;;;;;;;;;;;;;16.35;55.60;97107.34;4959055;28;19922;-80
2023/03/19 12:45:23;;;;;;;;;;;;;;;16.19;55.32;97102.28;4987548;28;19918;-79
2023/03/19 12:47:48;;;;;;;;;;;;;;;16.37;55.20;97099.97;4983228;28;20570;-80